Time;durP1;ratioP1;P1;durP2;ratioP2;P2;SDS_P1;SDS_P2;PMS_P1;PMS_P2;Temp;Humidity;BMP_temperature;BMP_pressure;BME280_temperature;BME280_humidity;BME280_pressure;Samples;Min_cycle;Max_cycle;Signal;HPM_P1;HPM_P2
2023/03/28 00:01:08;;;;;;;0.10;0.10;;;;;;;4.33;47.93;99558.63;5306092;26;34036;-82
2023/03/28 00:03:38;;;;;;;0.00;0.00;;;;;;;4.53;47.47;99562.53;5324122;26;34063;-82
2023/03/28 00:06:10;;;;;;;0.10;0.10;;;;;;;4.60;47.79;99564.09;5305735;26;33361;-82
2023/03/28 00:08:39;;;;;;;0.05;0.05;;;;;;;4.56;47.50;99572.94;5324019;26;34007;-82
2023/03/28 00:11:18;;;;;;;0.22;0.22;;;;;;;4.52;47.70;99581.75;5323939;26;33735;-83
2023/03/28 00:13:56;;;;;;;0.10;0.10;;;;;;;4.52;48.28;99576.50;5324934;26;34146;-84
2023/03/28 00:16:38;;;;;;;0.00;0.00;;;;;;;4.29;48.58;99567.41;5306398;26;33837;-84
2023/03/28 00:19:16;;;;;;;0.00;0.00;;;;;;;4.02;49.66;99578.44;5324240;26;33702;-84
2023/03/28 00:21:46;;;;;;;0.00;0.00;;;;;;;4.66;47.91;99584.03;5305561;26;34151;-84
2023/03/28 00:24:17;;;;;;;0.00;0.00;;;;;;;4.15;49.47;99582.53;5286904;26;33694;-83
2023/03/28 00:26:48;;;;;;;0.03;0.03;;;;;;;4.16;49.31;99586.88;5305043;26;33859;-83
2023/03/28 00:29:20;;;;;;;0.00;0.00;;;;;;;4.14;49.02;99586.03;5305986;26;32995;-83
2023/03/28 00:31:49;;;;;;;0.30;0.30;;;;;;;4.74;47.76;99596.03;5296916;26;33731;-83
2023/03/28 00:34:18;;;;;;;0.00;0.00;;;;;;;4.41;48.67;99599.41;5304114;26;32557;-83
2023/03/28 00:36:46;;;;;;;0.00;0.00;;;;;;;4.61;47.70;99598.09;5299171;26;148124;-84
2023/03/28 00:39:14;;;;;;;2.08;1.55;;;;;;;4.42;48.84;99606.38;5305668;26;34415;-84
2023/03/28 00:41:43;;;;;;;0.00;0.00;;;;;;;4.57;47.77;99608.62;5304730;26;33254;-84
2023/03/28 00:44:42;;;;;;;0.00;0.00;;;;;;;4.47;47.80;99614.97;5305123;26;32207;-84
2023/03/28 00:47:15;;;;;;;0.30;0.30;;;;;;;4.50;48.49;99620.13;5343250;26;34287;-84
2023/03/28 00:49:45;;;;;;;0.20;0.20;;;;;;;4.60;48.03;99624.25;5305219;26;33113;-84
2023/03/28 00:52:16;;;;;;;0.00;0.00;;;;;;;4.05;49.53;99633.25;5305352;26;33663;-84
2023/03/28 00:54:45;;;;;;;0.00;0.00;;;;;;;4.54;48.05;99640.06;5323466;26;32270;-84
2023/03/28 00:57:13;;;;;;;0.00;0.00;;;;;;;4.52;48.26;99639.25;5305251;26;34155;-84
2023/03/28 00:59:43;;;;;;;0.00;0.00;;;;;;;4.60;48.27;99642.53;5323592;26;34267;-84
2023/03/28 01:02:11;;;;;;;0.00;0.00;;;;;;;4.45;48.81;99642.87;5305546;26;33212;-84
2023/03/28 01:04:51;;;;;;;0.00;0.00;;;;;;;4.17;49.49;99651.28;5305317;26;32312;-84
2023/03/28 01:07:20;;;;;;;0.00;0.00;;;;;;;4.11;49.94;99646.19;5287575;26;33107;-84
2023/03/28 01:09:48;;;;;;;0.25;0.25;;;;;;;4.38;49.19;99652.63;5305348;26;33006;-84
2023/03/28 01:12:16;;;;;;;0.10;0.10;;;;;;;4.59;48.60;99654.75;5287095;26;32723;-84
2023/03/28 01:14:46;;;;;;;0.00;0.00;;;;;;;4.17;50.21;99658.28;5323137;26;33444;-84
2023/03/28 01:17:14;;;;;;;1.10;0.70;;;;;;;4.57;48.78;99663.56;5305913;26;33957;-84
2023/03/28 01:20:04;;;;;;;0.00;0.00;;;;;;;4.40;49.57;99670.88;5305257;26;34278;-84
2023/03/28 01:23:07;;;;;;;0.00;0.00;;;;;;;4.01;50.64;99668.19;5305718;26;34295;-84
2023/03/28 01:25:44;;;;;;;0.00;0.00;;;;;;;4.20;50.63;99664.31;5322656;26;33840;-84
2023/03/28 01:28:33;;;;;;;0.00;0.00;;;;;;;4.10;50.87;99678.44;5323843;26;33672;-84
2023/03/28 01:31:14;;;;;;;0.00;0.00;;;;;;;3.76;51.78;99679.09;5322938;26;34578;-84
2023/03/28 01:34:30;;;;;;;0.00;0.00;;;;;;;4.01;51.48;99673.41;5342756;26;33484;-84
2023/03/28 01:37:08;;;;;;;0.80;0.80;;;;;;;3.84;52.52;99690.22;5264231;26;34164;-84
2023/03/28 01:39:46;;;;;;;0.77;0.77;;;;;;;3.85;52.30;99694.59;5286572;26;33115;-83
2023/03/28 01:42:21;;;;;;;0.00;0.00;;;;;;;3.89;52.45;99694.50;5341473;26;32777;-84
2023/03/28 01:45:13;;;;;;;0.00;0.00;;;;;;;4.03;52.26;99693.38;5342903;26;34691;-84
2023/03/28 01:47:48;;;;;;;0.00;0.00;;;;;;;4.07;52.32;99699.41;5342241;26;32816;-84
2023/03/28 01:50:18;;;;;;;0.00;0.00;;;;;;;3.84;53.45;99698.06;5324303;26;34576;-84
2023/03/28 01:52:50;;;;;;;0.00;0.00;;;;;;;3.48;54.66;99698.72;5323941;26;33100;-84
2023/03/28 01:55:22;;;;;;;;;;;;;;;3.83;53.86;99711.16;5342898;26;33220;-84
2023/03/28 01:58:04;;;;;;;0.00;0.00;;;;;;;4.14;52.49;99706.25;5325002;26;33809;-83
2023/03/28 02:00:42;;;;;;;0.00;0.00;;;;;;;3.66;54.68;99716.69;5308412;26;35066;-84
2023/03/28 02:03:30;;;;;;;0.00;0.00;;;;;;;3.72;54.02;99716.59;5306118;26;33779;-84
2023/03/28 02:06:03;;;;;;;0.10;0.10;;;;;;;3.44;55.50;99717.94;5306829;26;34162;-83
2023/03/28 02:08:36;;;;;;;0.03;0.03;;;;;;;3.54;55.45;99722.09;5306403;26;32048;-84
2023/03/28 02:11:08;;;;;;;0.00;0.00;;;;;;;3.80;54.53;99734.75;5288296;26;33613;-84
2023/03/28 02:13:44;;;;;;;0.00;0.00;;;;;;;3.94;54.43;99732.75;5306247;26;33673;-84
2023/03/28 02:16:15;;;;;;;0.32;0.32;;;;;;;3.88;54.59;99739.81;5287752;26;34500;-84
2023/03/28 02:18:48;;;;;;;0.00;0.00;;;;;;;3.86;54.89;99732.00;5306524;26;33102;-84
2023/03/28 02:21:21;;;;;;;0.05;0.05;;;;;;;3.60;55.87;99737.66;5305554;26;32682;-83
2023/03/28 02:23:51;;;;;;;0.70;0.43;;;;;;;3.33;57.31;99747.66;5305934;26;33590;-83
2023/03/28 02:26:23;;;;;;;0.00;0.00;;;;;;;4.19;54.08;99746.22;5323781;26;33549;-83
2023/03/28 02:28:55;;;;;;;0.00;0.00;;;;;;;4.04;54.97;99752.59;5306042;26;34086;-84
2023/03/28 02:31:24;;;;;;;0.00;0.00;;;;;;;3.70;55.92;99746.19;5305426;26;32951;-85
2023/03/28 02:33:54;;;;;;;0.37;0.37;;;;;;;4.15;54.73;99744.53;5305844;26;33349;-84
2023/03/28 02:36:25;;;;;;;0.00;0.00;;;;;;;3.75;56.23;99750.50;5324696;26;34512;-84
2023/03/28 02:39:09;;;;;;;0.10;0.10;;;;;;;3.92;55.91;99746.72;5324267;26;33051;-84
2023/03/28 02:42:01;;;;;;;1.30;1.20;;;;;;;3.86;56.39;99752.91;5305864;26;33000;-84
2023/03/28 02:44:58;;;;;;;0.00;0.00;;;;;;;4.00;55.97;99756.16;5305653;26;33021;-84
2023/03/28 02:47:47;;;;;;;0.00;0.00;;;;;;;3.64;57.22;99755.00;5343982;26;33712;-84
2023/03/28 02:50:54;;;;;;;0.00;0.00;;;;;;;3.70;56.94;99762.72;5324222;26;33271;-84
2023/03/28 02:53:44;;;;;;;0.00;0.00;;;;;;;3.82;56.63;99779.97;5305521;26;32897;-84
2023/03/28 02:56:51;;;;;;;0.00;0.00;;;;;;;3.96;56.50;99790.19;5307066;26;33686;-84
2023/03/28 02:59:30;;;;;;;0.00;0.00;;;;;;;3.62;57.53;99789.88;5306145;26;34492;-84
2023/03/28 03:01:59;;;;;;;0.00;0.00;;;;;;;4.11;56.04;99789.91;5324223;26;33575;-84
2023/03/28 03:04:28;;;;;;;0.00;0.00;;;;;;;3.89;56.76;99794.63;5306727;26;34405;-84
2023/03/28 03:07:00;;;;;;;0.88;0.85;;;;;;;4.16;55.72;99797.66;5323991;26;33357;-84
2023/03/28 03:09:29;;;;;;;0.00;0.00;;;;;;;3.96;56.57;99805.84;5324835;26;34031;-84
2023/03/28 03:11:56;;;;;;;0.00;0.00;;;;;;;4.20;56.14;99815.88;5304996;26;32185;-84
2023/03/28 03:14:25;;;;;;;0.00;0.00;;;;;;;4.00;56.77;99818.84;5324330;26;34804;-84
2023/03/28 03:16:53;;;;;;;0.00;0.00;;;;;;;4.29;55.85;99820.09;5325152;26;33625;-84
2023/03/28 03:19:21;;;;;;;1.52;1.42;;;;;;;3.35;59.05;99828.53;5305722;26;33408;-84
2023/03/28 03:21:49;;;;;;;0.00;0.00;;;;;;;3.90;57.54;99829.47;5306181;26;33021;-84
2023/03/28 03:24:17;;;;;;;0.00;0.00;;;;;;;3.93;57.26;99832.03;5306765;26;33835;-83
2023/03/28 03:26:46;;;;;;;0.00;0.00;;;;;;;4.13;56.16;99824.75;5305925;26;33203;-84
2023/03/28 03:29:14;;;;;;;0.40;0.40;;;;;;;4.23;56.03;99834.13;5324356;26;34176;-83
2023/03/28 03:31:45;;;;;;;0.00;0.00;;;;;;;3.96;57.21;99837.22;5324012;26;32834;-84
2023/03/28 03:34:15;;;;;;;0.08;0.08;;;;;;;4.45;55.37;99838.97;5306233;26;32486;-84
2023/03/28 03:36:44;;;;;;;0.98;0.30;;;;;;;4.25;55.95;99842.81;5324315;26;34036;-84
2023/03/28 03:39:12;;;;;;;0.10;0.10;;;;;;;4.14;56.30;99846.50;5305799;26;33076;-84
2023/03/28 03:41:40;;;;;;;0.32;0.32;;;;;;;3.72;57.82;99849.75;5287460;26;32833;-84
2023/03/28 03:44:08;;;;;;;0.00;0.00;;;;;;;3.62;57.44;99860.38;5324315;26;33917;-84
2023/03/28 03:46:39;;;;;;;0.55;0.55;;;;;;;3.74;57.65;99845.38;5324480;26;34715;-84
2023/03/28 03:49:10;;;;;;;0.00;0.00;;;;;;;4.02;56.85;99855.38;5306181;26;34278;-84
2023/03/28 03:51:46;;;;;;;0.00;0.00;;;;;;;3.90;57.26;99858.22;5306466;26;32418;-85
2023/03/28 03:54:14;;;;;;;0.60;0.60;;;;;;;3.93;57.35;99864.22;5324001;26;34305;-85
2023/03/28 03:56:44;;;;;;;0.37;0.37;;;;;;;3.89;57.56;99872.13;5287495;26;33405;-85
2023/03/28 03:59:17;;;;;;;0.00;0.00;;;;;;;4.15;56.49;99862.16;5306332;26;33567;-85
2023/03/28 04:01:54;;;;;;;2.08;1.48;;;;;;;3.66;58.36;99870.75;5305951;26;32743;-85
2023/03/28 04:04:27;;;;;;;0.00;0.00;;;;;;;3.92;57.22;99877.31;5325528;26;34711;-85
2023/03/28 04:06:57;;;;;;;0.13;0.00;;;;;;;3.84;57.95;99886.13;5288182;26;33291;-85
2023/03/28 04:09:27;;;;;;;0.00;0.00;;;;;;;4.01;56.95;99882.41;5305976;26;33650;-86
2023/03/28 04:11:55;;;;;;;1.55;0.75;;;;;;;3.84;58.02;99886.13;5305632;26;32909;-85
2023/03/28 04:14:25;;;;;;;0.05;0.05;;;;;;;4.03;57.26;99897.16;5305565;26;33250;-85
2023/03/28 04:17:00;;;;;;;0.00;0.00;;;;;;;4.14;56.67;99888.31;5306737;26;32929;-85
2023/03/28 04:19:31;;;;;;;0.20;0.20;;;;;;;3.58;57.67;99899.56;5305196;26;32787;-85
2023/03/28 04:21:59;;;;;;;0.88;0.88;;;;;;;3.92;57.10;99903.44;5305577;26;34239;-85
2023/03/28 04:24:29;;;;;;;0.45;0.45;;;;;;;4.05;56.84;99905.84;5306034;26;33815;-85
2023/03/28 04:26:58;;;;;;;0.55;0.35;;;;;;;4.18;56.22;99908.25;5305611;26;33648;-85
2023/03/28 04:29:30;;;;;;;0.00;0.00;;;;;;;4.55;54.80;99903.28;5305376;26;32516;-85
2023/03/28 04:32:10;;;;;;;0.00;0.00;;;;;;;4.34;55.21;99912.38;5323771;26;32349;-85
2023/03/28 04:34:50;;;;;;;0.00;0.00;;;;;;;3.93;57.05;99920.84;5306882;26;33910;-85
2023/03/28 04:37:19;;;;;;;0.00;0.00;;;;;;;3.89;57.09;99929.59;5324237;26;33620;-85
2023/03/28 04:39:47;;;;;;;0.00;0.00;;;;;;;3.89;57.24;99927.00;5323966;26;34188;-85
2023/03/28 04:42:26;;;;;;;0.65;0.65;;;;;;;4.22;55.80;99929.09;5325409;26;33513;-85
2023/03/28 04:45:01;;;;;;;0.00;0.00;;;;;;;4.08;56.63;99936.28;5306957;26;34319;-86
2023/03/28 04:47:36;;;;;;;0.00;0.00;;;;;;;4.22;56.14;99923.88;5324839;26;33885;-85
2023/03/28 04:50:09;;;;;;;0.85;0.85;;;;;;;4.28;55.35;99931.63;5306761;26;34311;-84
2023/03/28 04:52:40;;;;;;;0.03;0.03;;;;;;;4.19;55.46;99938.75;5324148;26;33800;-84
2023/03/28 04:55:16;;;;;;;0.00;0.00;;;;;;;4.05;56.30;99949.41;5324988;26;34784;-84
2023/03/28 04:57:46;;;;;;;1.30;0.90;;;;;;;3.91;56.58;99948.75;5323763;26;34324;-84
2023/03/28 05:00:21;;;;;;;0.00;0.00;;;;;;;4.23;55.90;99943.91;5324062;26;33568;-85
2023/03/28 05:03:04;;;;;;;;;;;;;;;3.94;57.02;99943.47;5309885;26;34205;-85
2023/03/28 05:05:40;;;;;;;0.22;0.22;;;;;;;3.95;56.64;99945.22;5324200;26;33517;-84
2023/03/28 05:10:50;;;;;;;0.22;0.22;;;;;;;4.26;55.55;99938.63;5305264;26;33453;-83
2023/03/28 05:13:24;;;;;;;0.00;0.00;;;;;;;3.68;57.25;99954.28;5305706;26;32312;-83
2023/03/28 05:15:58;;;;;;;0.00;0.00;;;;;;;4.07;55.93;99955.47;5305247;26;32301;-84
2023/03/28 05:18:30;;;;;;;0.05;0.05;;;;;;;3.90;56.84;99957.47;5321286;26;34425;-84
2023/03/28 05:21:00;;;;;;;0.70;0.70;;;;;;;4.35;55.53;99958.53;5303476;26;33858;-84
2023/03/28 05:23:33;;;;;;;;;;;;;;;4.20;55.72;99958.78;5316307;27;33082;-84
2023/03/28 05:26:05;;;;;;;0.20;0.20;;;;;;;4.18;55.60;99964.03;5298914;27;33868;-84
2023/03/28 05:28:38;;;;;;;0.10;0.10;;;;;;;4.53;54.20;99968.69;5299827;27;33613;-84
2023/03/28 05:31:07;;;;;;;1.37;0.88;;;;;;;3.97;55.61;99974.78;5299133;27;32877;-84
2023/03/28 05:33:37;;;;;;;0.00;0.00;;;;;;;4.35;55.06;99982.91;5300141;27;33091;-85
2023/03/28 05:36:06;;;;;;;0.00;0.00;;;;;;;4.45;53.92;99967.09;5281542;27;34331;-84
2023/03/28 05:38:36;;;;;;;0.80;0.55;;;;;;;4.15;55.35;99984.09;5281493;27;34879;-85
2023/03/28 05:41:07;;;;;;;0.00;0.00;;;;;;;4.33;54.48;99979.47;5299969;27;34083;-84
2023/03/28 05:43:39;;;;;;;0.10;0.10;;;;;;;4.27;54.98;99982.19;5281703;27;32571;-85
2023/03/28 05:46:09;;;;;;;0.00;0.00;;;;;;;4.52;53.60;99979.19;5281299;27;32716;-84
2023/03/28 05:48:39;;;;;;;1.08;0.98;;;;;;;4.36;54.36;99989.84;5263161;27;33631;-83
2023/03/28 05:51:15;;;;;;;0.57;0.57;;;;;;;4.64;53.84;99978.97;5301764;27;35368;-86
2023/03/28 05:53:45;;;;;;;0.00;0.00;;;;;;;4.62;53.98;99981.62;5301139;27;34241;-87
2023/03/28 05:56:17;;;;;;;0.10;0.10;;;;;;;4.73;53.95;99988.41;5300366;27;32604;-86
2023/03/28 06:01:27;;;;;;;0.00;0.00;;;;;;;4.90;53.08;99994.22;5301891;27;33653;-87
2023/03/28 06:04:00;;;;;;;0.62;0.62;;;;;;;4.90;52.95;99986.37;5301635;27;33211;-87
2023/03/28 06:06:33;;;;;;;0.10;0.10;;;;;;;4.78;53.94;99991.81;5301273;27;34527;-87
2023/03/28 06:09:07;;;;;;;0.05;0.05;;;;;;;5.07;52.64;99991.28;5301223;27;32634;-87
2023/03/28 06:11:41;;;;;;;0.00;0.00;;;;;;;4.85;53.07;100001.31;5284373;27;33300;-86
2023/03/28 06:14:10;;;;;;;0.00;0.00;;;;;;;5.19;51.66;100004.16;5300181;27;32508;-86
2023/03/28 06:16:39;;;;;;;0.10;0.10;;;;;;;5.28;52.13;100013.63;5300377;27;33903;-87
2023/03/28 06:19:07;;;;;;;0.08;0.08;;;;;;;5.31;51.78;100013.53;5282324;27;34040;-87
2023/03/28 06:21:49;;;;;;;0.00;0.00;;;;;;;4.87;53.28;100013.44;5289458;26;33843;-87
2023/03/28 06:24:20;;;;;;;2.17;0.77;;;;;;;5.59;51.65;100029.59;5323337;26;33064;-86
2023/03/28 06:26:50;;;;;;;0.00;0.00;;;;;;;5.57;51.83;100026.16;5287326;26;33108;-88
2023/03/28 06:29:24;;;;;;;0.40;0.40;;;;;;;5.86;51.17;100039.50;5287999;26;33293;-89
2023/03/28 06:31:54;;;;;;;0.10;0.10;;;;;;;5.29;52.79;100041.50;5286074;26;32381;-87
2023/03/28 06:34:29;;;;;;;0.08;0.08;;;;;;;5.43;52.14;100033.41;5304386;26;33060;-87
2023/03/28 06:37:01;;;;;;;0.00;0.00;;;;;;;5.99;50.18;100050.66;5285545;26;32810;-87
2023/03/28 06:39:30;;;;;;;1.10;0.60;;;;;;;5.80;50.38;100046.66;5286415;26;32918;-87
2023/03/28 06:42:02;;;;;;;0.00;0.00;;;;;;;5.26;51.69;100055.50;5322449;26;32998;-87
2023/03/28 06:44:31;;;;;;;0.20;0.20;;;;;;;5.23;51.29;100067.81;5322781;26;34074;-87
2023/03/28 06:47:01;;;;;;;0.40;0.40;;;;;;;5.53;51.71;100055.91;5321763;26;33291;-87
2023/03/28 06:49:30;;;;;;;0.00;0.00;;;;;;;5.82;50.03;100057.94;5303878;26;34260;-88
2023/03/28 06:52:04;;;;;;;0.00;0.00;;;;;;;5.73;50.71;100069.47;5287644;26;32318;-88
2023/03/28 06:54:35;;;;;;;0.28;0.28;;;;;;;6.21;49.21;100060.66;5304753;26;33424;-87
2023/03/28 06:57:06;;;;;;;0.00;0.00;;;;;;;5.93;49.68;100070.87;5287085;26;33797;-88
2023/03/28 06:59:42;;;;;;;0.00;0.00;;;;;;;5.88;49.56;100073.53;5305298;26;33468;-88
2023/03/28 07:02:13;;;;;;;0.00;0.00;;;;;;;5.49;51.01;100088.28;5287221;26;32670;-88
2023/03/28 07:04:42;;;;;;;0.05;0.05;;;;;;;5.89;49.96;100077.91;5285810;26;32307;-88
2023/03/28 07:07:16;;;;;;;1.37;1.20;;;;;;;6.23;48.85;100069.38;5288254;26;33666;-87
2023/03/28 07:09:48;;;;;;;0.00;0.00;;;;;;;6.40;48.92;100073.31;5322037;26;33575;-87
2023/03/28 07:12:18;;;;;;;0.13;0.13;;;;;;;5.97;49.98;100072.53;5305251;26;33831;-88
2023/03/28 07:14:47;;;;;;;0.00;0.00;;;;;;;6.31;50.12;100075.28;5286364;26;32428;-88
2023/03/28 07:17:16;;;;;;;0.00;0.00;;;;;;;6.60;48.60;100077.28;5304238;26;33271;-88
2023/03/28 07:19:49;;;;;;;0.15;0.15;;;;;;;6.40;49.04;100083.81;5295437;26;34039;-88
2023/03/28 07:22:20;;;;;;;0.00;0.00;;;;;;;6.75;47.49;100083.94;5322013;26;32627;-88
2023/03/28 07:24:48;;;;;;;0.00;0.00;;;;;;;6.81;47.48;100084.66;5303986;26;33416;-88
2023/03/28 07:32:36;;;;;;;0.00;0.00;;;;;;;6.47;47.83;100094.19;5323795;26;34638;-88
2023/03/28 07:35:21;;;;;;;0.00;0.00;;;;;;;6.83;46.95;100102.97;5324398;26;33713;-88
2023/03/28 07:37:52;;;;;;;0.00;0.00;;;;;;;6.76;47.23;100102.25;5306157;26;32126;-89
2023/03/28 07:40:31;;;;;;;0.28;0.10;;;;;;;6.72;46.92;100105.00;5325303;26;35398;-92
2023/03/28 07:43:00;;;;;;;2.62;1.95;;;;;;;6.24;48.40;100108.66;5323283;26;33579;-87
2023/03/28 07:45:30;;;;;;;0.00;0.00;;;;;;;6.50;47.77;100104.59;5287191;26;32577;-88
2023/03/28 07:47:59;;;;;;;0.00;0.00;;;;;;;6.67;47.33;100102.47;5305698;26;33846;-88
2023/03/28 07:50:30;;;;;;;0.00;0.00;;;;;;;6.63;47.89;100106.91;5285465;26;34170;-88
2023/03/28 07:53:03;;;;;;;0.00;0.00;;;;;;;6.21;49.52;100106.09;5318681;26;33702;-88
2023/03/28 07:55:32;;;;;;;0.30;0.30;;;;;;;6.40;48.43;100110.06;5301785;26;32767;-88
2023/03/28 07:58:15;;;;;;;0.00;0.00;;;;;;;6.60;47.61;100107.00;5323328;26;33158;-87
2023/03/28 08:00:52;;;;;;;0.00;0.00;;;;;;;6.47;48.24;100100.31;5306023;26;35796;-88
2023/03/28 08:03:23;;;;;;;0.30;0.30;;;;;;;6.73;48.46;100091.81;5303860;26;34188;-87
2023/03/28 08:05:53;;;;;;;0.05;0.05;;;;;;;6.31;49.27;100098.91;5303359;26;33509;-90
2023/03/28 08:08:22;;;;;;;0.62;0.47;;;;;;;7.10;46.06;100085.69;5303719;26;32999;-89
2023/03/28 08:10:51;;;;;;;0.52;0.37;;;;;;;7.23;46.34;100084.50;5303633;26;34445;-90
2023/03/28 08:13:19;;;;;;;0.10;0.10;;;;;;;7.10;46.32;100085.69;5283911;26;33358;-90
2023/03/28 08:15:54;;;;;;;0.22;0.20;;;;;;;6.63;46.77;100087.69;5285531;26;32786;-90
2023/03/28 08:18:24;;;;;;;0.00;0.00;;;;;;;6.75;47.06;100090.03;5303168;26;32791;-90
2023/03/28 08:21:00;;;;;;;0.00;0.00;;;;;;;6.91;45.94;100091.41;5303849;26;33415;-90
2023/03/28 08:23:37;;;;;;;;;;;;;;;6.54;47.85;100080.87;5300904;27;34590;-90
2023/03/28 08:26:07;;;;;;;0.00;0.00;;;;;;;6.63;47.22;100099.06;5298015;27;32351;-90
2023/03/28 08:28:40;;;;;;;0.28;0.28;;;;;;;6.88;45.23;100095.84;5262765;27;32416;-90
2023/03/28 08:31:14;;;;;;;0.08;0.08;;;;;;;7.12;44.86;100091.75;5298885;27;32729;-90
2023/03/28 08:33:47;;;;;;;0.00;0.00;;;;;;;7.10;44.74;100090.94;5281976;27;34380;-88
2023/03/28 08:36:22;;;;;;;0.00;0.00;;;;;;;7.23;44.71;100087.13;5299415;27;32163;-89
2023/03/28 08:38:53;;;;;;;0.00;0.00;;;;;;;7.31;44.71;100073.78;5299076;27;32858;-89
2023/03/28 08:41:43;;;;;;;0.00;0.00;;;;;;;7.50;44.08;100074.16;5298892;27;34567;-88
2023/03/28 08:44:32;;;;;;;0.00;0.00;;;;;;;7.40;45.73;100078.78;5298314;27;33544;-88
2023/03/28 08:47:11;;;;;;;0.00;0.00;;;;;;;7.61;43.08;100072.13;5298543;27;31821;-89
2023/03/28 08:52:54;;;;;;;0.00;0.00;;;;;;;7.75;42.07;100067.34;5293050;27;33484;-88
2023/03/28 08:55:27;;;;;;;0.00;0.00;;;;;;;7.96;43.03;100058.81;5298569;27;33889;-88
2023/03/28 08:57:56;;;;;;;;;;;;;;;8.08;41.51;100057.63;5279959;27;32152;-87
2023/03/28 09:00:28;;;;;;;0.00;0.00;;;;;;;8.38;40.87;100055.88;5298219;27;34133;-88
2023/03/28 09:02:58;;;;;;;0.10;0.10;;;;;;;7.71;43.11;100070.94;5299322;27;32089;-88
2023/03/28 09:05:48;;;;;;;0.00;0.00;;;;;;;7.74;43.70;100067.37;5279987;27;32006;-88
2023/03/28 09:08:43;;;;;;;0.70;0.70;;;;;;;7.59;44.39;100074.75;5297991;27;32329;-88
2023/03/28 09:11:40;;;;;;;0.03;0.03;;;;;;;7.20;42.91;100074.06;5297715;27;32519;-88
2023/03/28 09:14:36;;;;;;;0.00;0.00;;;;;;;7.40;43.74;100079.66;5280577;27;32324;-88
2023/03/28 09:17:38;;;;;;;0.00;0.00;;;;;;;7.40;44.10;100081.41;5280333;27;33170;-88
2023/03/28 09:20:22;;;;;;;0.00;0.00;;;;;;;7.36;42.40;100077.16;5298591;27;32809;-88
2023/03/28 09:23:06;;;;;;;0.00;0.00;;;;;;;8.01;41.90;100071.00;5277876;26;33728;-88
2023/03/28 09:25:49;;;;;;;0.43;0.43;;;;;;;7.55;43.61;100082.78;5302837;26;32970;-88
2023/03/28 09:28:33;;;;;;;0.00;0.00;;;;;;;7.92;44.15;100094.00;5285596;26;33003;-87
2023/03/28 09:31:04;;;;;;;0.00;0.00;;;;;;;8.28;41.72;100088.59;5302219;26;32159;-90
2023/03/28 09:36:24;;;;;;;0.00;0.00;;;;;;;8.12;43.53;100100.50;5285177;26;33158;-88
2023/03/28 09:39:17;;;;;;;0.10;0.10;;;;;;;8.16;43.87;100104.72;5305753;26;34489;-88
2023/03/28 09:42:01;;;;;;;0.00;0.00;;;;;;;8.40;44.45;100109.31;5303410;26;33122;-87
2023/03/28 09:44:44;;;;;;;0.00;0.00;;;;;;;8.29;44.68;100098.22;5304250;26;33635;-88
2023/03/28 09:47:26;;;;;;;0.52;0.52;;;;;;;8.35;44.46;100099.78;5322613;26;33022;-87
2023/03/28 09:49:55;;;;;;;0.10;0.10;;;;;;;8.25;44.67;100098.34;5284156;26;32856;-88
2023/03/28 09:52:40;;;;;;;0.00;0.00;;;;;;;8.00;45.92;100085.06;5288983;26;33132;-88
2023/03/28 09:55:17;;;;;;;28.75;1.17;;;;;;;8.17;47.22;100093.31;5320501;26;33885;-87
2023/03/28 09:58:03;;;;;;;0.00;0.00;;;;;;;8.35;45.54;100082.22;5284065;26;33213;-87
2023/03/28 10:00:37;;;;;;;0.10;0.10;;;;;;;8.91;44.32;100071.72;5284375;26;33944;-88
2023/03/28 10:03:33;;;;;;;0.00;0.00;;;;;;;8.22;45.72;100099.31;5300745;26;32242;-87
2023/03/28 10:06:29;;;;;;;0.00;0.00;;;;;;;7.80;42.40;100069.84;5303010;26;33210;-86
2023/03/28 10:09:17;;;;;;;0.00;0.00;;;;;;;8.64;41.55;100064.72;5285884;26;34156;-87
2023/03/28 10:11:53;;;;;;;0.00;0.00;;;;;;;8.53;39.75;100072.94;5303168;26;33185;-87
2023/03/28 10:14:35;;;;;;;0.00;0.00;;;;;;;8.14;39.32;100069.72;5322070;26;34134;-87
2023/03/28 10:17:12;;;;;;;0.00;0.00;;;;;;;8.51;38.88;100066.03;5303505;26;32853;-87
2023/03/28 10:19:52;;;;;;;0.00;0.00;;;;;;;8.79;36.79;100066.03;5305617;26;32976;-88
2023/03/28 10:22:25;;;;;;;0.00;0.00;;;;;;;8.72;35.96;100075.88;5285451;26;34392;-87
2023/03/28 10:24:55;;;;;;;0.00;0.00;;;;;;;8.57;34.16;100071.09;5307276;26;34032;-91
2023/03/28 10:27:52;;;;;;;0.00;0.00;;;;;;;8.71;35.26;100068.88;5352894;26;34819;-96
2023/03/28 10:30:35;;;;;;;0.45;0.45;;;;;;;8.85;35.05;100069.31;5311003;26;32767;-89
2023/03/28 10:33:19;;;;;;;0.10;0.10;;;;;;;8.75;35.13;100067.87;5307173;26;32756;-90
2023/03/28 10:36:06;;;;;;;0.00;0.00;;;;;;;8.55;34.59;100073.78;5306441;26;32790;-87
2023/03/28 10:38:46;;;;;;;0.00;0.00;;;;;;;8.14;36.41;100088.13;5306704;26;32613;-87
2023/03/28 10:41:28;;;;;;;0.00;0.00;;;;;;;7.88;36.28;100084.50;5306704;26;33249;-90
2023/03/28 10:44:16;;;;;;;0.00;0.00;;;;;;;8.33;35.19;100076.16;5308724;26;34015;-87
2023/03/28 10:46:46;;;;;;;0.00;0.00;;;;;;;8.06;38.32;100079.59;5288563;26;33031;-88
2023/03/28 10:49:18;;;;;;;0.00;0.00;;;;;;;8.67;37.66;100072.53;5307666;26;34510;-90
2023/03/28 10:51:53;;;;;;;0.00;0.00;;;;;;;8.67;39.98;100070.75;5308877;26;34000;-90
2023/03/28 10:54:33;;;;;;;0.00;0.00;;;;;;;9.00;41.27;100053.91;5307003;26;32759;-88
2023/03/28 10:57:17;;;;;;;0.00;0.00;;;;;;;9.37;41.99;100062.31;5324845;26;33514;-88
2023/03/28 11:00:06;;;;;;;0.08;0.08;;;;;;;8.92;42.14;100060.28;5282797;27;32989;-88
2023/03/28 11:02:53;;;;;;;0.00;0.00;;;;;;;9.71;41.13;100061.97;5336858;26;32720;-88
2023/03/28 11:05:39;;;;;;;0.20;0.20;;;;;;;9.70;41.75;100059.41;5302744;26;33330;-88
2023/03/28 11:08:18;;;;;;;;;;;;;;;9.84;39.58;100061.53;5283407;27;32847;-89
2023/03/28 11:11:19;;;;;;;0.00;0.00;;;;;;;9.86;37.46;100065.81;5302020;26;34617;-90
2023/03/28 11:14:02;;;;;;;0.00;0.00;;;;;;;9.62;36.26;100074.63;5319713;26;32838;-89
2023/03/28 11:16:57;;;;;;;;;;;;;;;9.08;34.88;100057.16;5285006;27;34093;-89
2023/03/28 11:22:41;;;;;;;0.15;0.15;;;;;;;9.24;35.33;100053.94;5301845;27;33919;-88
2023/03/28 11:25:56;;;;;;;0.00;0.00;;;;;;;9.10;37.16;100060.59;5292665;27;34562;-88
2023/03/28 11:31:19;;;;;;;0.08;0.08;;;;;;;9.84;37.55;100051.84;5300463;27;32757;-89
2023/03/28 11:33:52;;;;;;;0.00;0.00;;;;;;;9.88;37.73;100057.87;5283613;26;33435;-88
2023/03/28 11:36:37;;;;;;;0.00;0.00;;;;;;;9.52;37.21;100058.25;5297712;27;33911;-88
2023/03/28 11:39:55;;;;;;;0.10;0.10;;;;;;;9.40;37.77;100066.59;5248717;26;34153;-88
2023/03/28 11:42:49;;;;;;;0.00;0.00;;;;;;;9.56;36.98;100074.84;5218633;27;32205;-90
2023/03/28 11:45:45;;;;;;;0.00;0.00;;;;;;;9.38;37.33;100079.81;5218991;27;32707;-89
2023/03/28 11:48:27;;;;;;;0.00;0.00;;;;;;;9.38;37.39;100077.19;5280596;26;33014;-89
2023/03/28 11:51:09;;;;;;;0.00;0.00;;;;;;;9.81;34.78;100061.63;5283630;27;33720;-89
2023/03/28 11:54:02;;;;;;;0.00;0.00;;;;;;;9.83;35.81;100062.47;5285463;27;33098;-89
2023/03/28 11:56:40;;;;;;;0.00;0.00;;;;;;;9.51;35.81;100066.25;5319379;26;32698;-90
2023/03/28 11:59:25;;;;;;;0.20;0.20;;;;;;;10.49;34.67;100053.81;5328381;26;32908;-89
2023/03/28 12:02:05;;;;;;;0.13;0.13;;;;;;;9.77;31.91;100063.50;5287402;26;33466;-88
2023/03/28 12:04:49;;;;;;;0.00;0.00;;;;;;;10.18;31.24;100066.41;5271600;26;33064;-89
2023/03/28 12:07:51;;;;;;;0.00;0.00;;;;;;;10.15;31.41;100062.09;5326059;26;32786;-89
2023/03/28 12:10:36;;;;;;;0.00;0.00;;;;;;;10.29;31.72;100064.25;5286497;26;33930;-87
2023/03/28 12:15:55;;;;;;;0.00;0.00;;;;;;;10.61;31.17;100048.94;5324593;26;33820;-88
2023/03/28 12:18:42;;;;;;;0.08;0.08;;;;;;;10.52;30.02;100053.66;5303940;26;33616;-88
2023/03/28 12:21:20;;;;;;;0.00;0.00;;;;;;;10.69;29.23;100058.28;5323709;26;34046;-88
2023/03/28 12:23:52;;;;;;;0.00;0.00;;;;;;;10.54;28.21;100060.66;5288023;26;35305;-89
2023/03/28 12:26:43;;;;;;;0.13;0.13;;;;;;;10.39;29.14;100068.25;5306079;26;33151;-88
2023/03/28 12:29:17;;;;;;;0.00;0.00;;;;;;;10.42;27.58;100062.88;5303776;26;32719;-89
2023/03/28 12:32:15;;;;;;;0.10;0.10;;;;;;;10.06;26.81;100045.75;5305916;26;33244;-88
2023/03/28 12:35:17;;;;;;;0.00;0.00;;;;;;;10.01;28.31;100062.59;5305227;26;32820;-88
2023/03/28 12:38:22;;;;;;;0.00;0.00;;;;;;;10.33;26.73;100057.94;5303160;26;35090;-86
2023/03/28 12:41:00;;;;;;;0.20;0.20;;;;;;;10.59;26.29;100058.72;5323389;26;34426;-86
2023/03/28 12:43:35;;;;;;;;;;;;;;;10.79;24.79;100061.41;5286236;26;32375;-85
2023/03/28 12:46:13;;;;;;;0.10;0.10;;;;;;;10.20;25.09;100067.19;5286822;26;33012;-86
2023/03/28 12:48:49;;;;;;;0.00;0.00;;;;;;;10.00;26.12;100055.62;5304317;26;33829;-86